createdAt,value
2023-05-22T00:02:26.931Z,47.66
2023-05-22T00:07:28.422Z,47.50
2023-05-22T00:12:29.857Z,47.86
2023-05-22T00:17:31.332Z,47.73
2023-05-22T00:22:35.312Z,47.66
2023-05-22T00:27:36.799Z,47.72
2023-05-22T00:32:38.892Z,47.61
2023-05-22T00:37:40.409Z,47.78
2023-05-22T00:42:43.612Z,47.66
2023-05-22T00:47:45.212Z,47.78
2023-05-22T00:52:46.680Z,47.82
2023-05-22T00:57:48.118Z,47.67
2023-05-22T01:02:51.118Z,47.77
2023-05-22T01:07:53.144Z,47.75
2023-05-22T01:13:04.379Z,47.71
2023-05-22T01:18:20.474Z,47.78
2023-05-22T01:23:46.961Z,47.60
2023-05-22T01:28:57.102Z,47.86
2023-05-22T01:34:00.384Z,47.86
2023-05-22T01:39:04.414Z,47.71
2023-05-22T01:44:06.023Z,47.73
2023-05-22T01:49:08.963Z,47.83
2023-05-22T01:54:43.079Z,47.69
2023-05-22T01:59:48.326Z,47.59
2023-05-22T02:04:52.959Z,48.03
2023-05-22T02:09:54.484Z,47.74
2023-05-22T02:14:55.905Z,47.65
2023-05-22T02:19:57.335Z,47.60
2023-05-22T02:24:58.795Z,47.47
2023-05-22T02:30:00.387Z,47.59
2023-05-22T02:35:02.033Z,47.45
2023-05-22T02:40:06.186Z,47.37
2023-05-22T02:45:08.315Z,47.52
2023-05-22T02:50:09.887Z,47.46
2023-05-22T02:55:11.357Z,47.45
2023-05-22T03:00:12.999Z,47.46
2023-05-22T03:05:17.366Z,47.35
2023-05-22T03:10:18.886Z,47.60
2023-05-22T03:15:20.436Z,47.35
2023-05-22T03:20:21.891Z,47.20
2023-05-22T03:25:24.413Z,47.21
2023-05-22T03:30:25.859Z,47.30
2023-05-22T03:35:27.314Z,47.24
2023-05-22T03:40:28.736Z,47.27
2023-05-22T03:45:30.235Z,47.33
2023-05-22T03:50:31.737Z,47.24
2023-05-22T03:55:33.168Z,47.28
2023-05-22T04:00:34.711Z,47.36
2023-05-22T04:05:36.286Z,47.23
2023-05-22T04:10:38.707Z,47.42
2023-05-22T04:15:46.622Z,47.55
2023-05-22T04:20:48.293Z,47.73
2023-05-22T04:25:49.972Z,48.24
2023-05-22T04:30:51.412Z,48.13
2023-05-22T04:35:54.336Z,47.86
2023-05-22T04:40:56.416Z,47.87
2023-05-22T04:45:57.923Z,47.68
2023-05-22T04:50:59.382Z,47.91
2023-05-22T04:56:00.835Z,47.78
2023-05-22T05:01:03.257Z,47.89
2023-05-22T05:06:04.811Z,47.91
2023-05-22T05:11:06.528Z,48.20
2023-05-22T05:16:08.107Z,47.86
2023-05-22T05:21:09.609Z,47.60
2023-05-22T05:26:11.052Z,47.73
2023-05-22T05:31:12.471Z,47.67
2023-05-22T05:36:14.005Z,47.73
2023-05-22T05:41:15.545Z,47.73
2023-05-22T05:46:17.091Z,47.70
2023-05-22T05:51:18.635Z,47.47
2023-05-22T05:56:20.093Z,47.47
2023-05-22T06:01:24.141Z,47.62
2023-05-22T06:06:25.968Z,47.67
2023-05-22T06:11:27.383Z,47.63
2023-05-22T06:16:29.237Z,47.63
2023-05-22T06:21:31.009Z,47.73
2023-05-22T06:26:32.874Z,47.64
2023-05-22T06:31:35.358Z,47.53
2023-05-22T06:36:37.331Z,47.68
2023-05-22T06:41:38.979Z,47.24
2023-05-22T06:46:40.457Z,47.27
2023-05-22T06:51:41.930Z,47.14
2023-05-22T06:56:43.378Z,46.84
2023-05-22T07:01:44.981Z,46.91
2023-05-22T07:06:48.445Z,46.81
2023-05-22T07:11:49.974Z,46.55
2023-05-22T07:16:51.584Z,46.80
2023-05-22T07:21:53.604Z,46.46
2023-05-22T07:26:55.073Z,46.34
2023-05-22T07:31:56.563Z,46.15
2023-05-22T07:36:58.145Z,45.96
2023-05-22T07:42:00.926Z,45.77
2023-05-22T07:47:03.275Z,45.78
2023-05-22T07:52:04.751Z,45.41
2023-05-22T07:57:07.969Z,45.21
2023-05-22T08:02:09.957Z,44.83
2023-05-22T08:07:11.410Z,44.77
2023-05-22T08:12:12.881Z,44.64
2023-05-22T08:17:15.034Z,44.20
2023-05-22T08:22:16.591Z,43.79
2023-05-22T08:27:18.040Z,43.65
2023-05-22T08:32:19.465Z,43.50
2023-05-22T08:37:21.108Z,43.06
2023-05-22T08:42:22.526Z,42.98
2023-05-22T08:47:25.956Z,42.26
2023-05-22T08:52:46.844Z,41.87
2023-05-22T08:57:51.689Z,40.39
2023-05-22T09:02:53.294Z,39.48
2023-05-22T09:07:56.622Z,39.23
2023-05-22T09:13:09.184Z,38.82
2023-05-22T09:18:11.602Z,39.00
2023-05-22T09:23:14.482Z,38.91
2023-05-22T09:28:15.929Z,38.92
2023-05-22T09:33:18.297Z,38.54
2023-05-22T09:38:19.739Z,38.70
2023-05-22T09:43:21.946Z,38.69
2023-05-22T09:48:23.415Z,39.11
2023-05-22T09:53:27.452Z,39.91
2023-05-22T09:58:30.730Z,40.12
2023-05-22T10:03:32.244Z,40.68
2023-05-22T10:08:38.464Z,40.63
2023-05-22T10:13:39.950Z,41.01
2023-05-22T10:18:41.541Z,41.18
2023-05-22T10:23:42.988Z,41.31
2023-05-22T10:28:48.007Z,41.34
2023-05-22T10:33:53.236Z,41.27
2023-05-22T10:39:08.674Z,41.41
2023-05-22T10:44:10.348Z,41.34
2023-05-22T10:49:12.678Z,41.38
2023-05-22T10:54:14.324Z,41.20
2023-05-22T10:59:15.812Z,41.01
2023-05-22T11:04:18.963Z,41.08
2023-05-22T11:09:31.013Z,40.82
2023-05-22T11:14:32.507Z,40.84
2023-05-22T11:19:34.131Z,41.04
2023-05-22T11:24:37.126Z,40.60
2023-05-22T11:29:39.958Z,40.40
2023-05-22T11:34:43.187Z,40.46
2023-05-22T11:39:54.911Z,40.47
2023-05-22T11:44:56.495Z,40.23
2023-05-22T11:49:58.069Z,40.18
2023-05-22T11:54:59.607Z,40.26
2023-05-22T12:00:01.492Z,40.20
2023-05-22T12:05:04.118Z,40.53
2023-05-22T12:10:07.203Z,40.41
2023-05-22T12:15:09.150Z,40.61
2023-05-22T12:20:12.509Z,40.62
2023-05-22T12:25:15.795Z,40.70
2023-05-22T12:30:17.674Z,40.74
2023-05-22T12:35:19.307Z,40.73
2023-05-22T12:40:20.882Z,40.70
2023-05-22T12:45:22.304Z,40.71
2023-05-22T12:50:23.850Z,40.79
2023-05-22T12:55:25.359Z,40.63
2023-05-22T13:00:26.799Z,40.94
2023-05-22T13:05:28.253Z,40.74
2023-05-22T13:10:30.435Z,40.93
2023-05-22T13:15:32.438Z,40.93
2023-05-22T13:20:36.927Z,40.59
2023-05-22T13:25:38.603Z,40.85
2023-05-22T13:30:40.544Z,40.75
2023-05-22T13:35:42.273Z,40.22
2023-05-22T13:40:45.182Z,40.16
2023-05-22T13:45:47.708Z,40.30
2023-05-22T13:50:49.448Z,40.14
2023-05-22T13:55:51.570Z,40.07
2023-05-22T14:00:53.057Z,39.83
2023-05-22T14:05:54.537Z,39.94
2023-05-22T14:10:56.109Z,39.86
2023-05-22T14:15:57.533Z,39.74
2023-05-22T14:20:58.973Z,39.62
2023-05-22T14:26:00.399Z,39.77
2023-05-22T14:31:01.917Z,39.34
2023-05-22T14:36:03.466Z,39.55
2023-05-22T14:41:05.021Z,39.82
2023-05-22T14:46:06.795Z,39.61
2023-05-22T14:51:08.354Z,39.72
2023-05-22T14:56:09.784Z,39.65
2023-05-22T15:01:11.358Z,39.66
2023-05-22T15:06:12.816Z,39.13
2023-05-22T15:11:14.250Z,38.96
2023-05-22T15:16:15.803Z,39.07
2023-05-22T15:21:17.326Z,39.20
2023-05-22T15:26:19.082Z,38.66
2023-05-22T15:31:20.531Z,38.99
2023-05-22T15:36:22.251Z,38.84
2023-05-22T15:41:23.883Z,38.59
2023-05-22T15:46:25.465Z,38.55
2023-05-22T15:51:27.362Z,38.53
2023-05-22T15:56:28.900Z,38.35
2023-05-22T16:01:30.522Z,38.09
2023-05-22T16:06:32.484Z,37.82
2023-05-22T16:11:33.898Z,38.11
2023-05-22T16:16:35.478Z,37.62
2023-05-22T16:21:37.096Z,37.71
2023-05-22T16:26:39.106Z,37.80
2023-05-22T16:31:40.581Z,37.77
2023-05-22T16:36:42.032Z,37.71
2023-05-22T16:41:43.460Z,37.59
2023-05-22T16:46:44.945Z,37.78
2023-05-22T16:51:46.565Z,37.92
2023-05-22T16:56:47.986Z,38.31
2023-05-22T17:01:49.649Z,38.45
2023-05-22T17:06:53.573Z,38.71
2023-05-22T17:11:55.046Z,38.87
2023-05-22T17:16:56.478Z,39.13
2023-05-22T17:21:58.086Z,39.21
2023-05-22T17:27:00.032Z,39.49
2023-05-22T17:32:01.504Z,39.72
2023-05-22T17:37:02.950Z,39.94
2023-05-22T17:42:04.742Z,40.36
2023-05-22T17:47:06.540Z,40.37
2023-05-22T17:52:08.662Z,40.24
2023-05-22T17:57:10.218Z,40.55
2023-05-22T18:02:11.635Z,40.53
2023-05-22T18:07:13.208Z,40.89
2023-05-22T18:12:27.847Z,40.53
2023-05-22T18:17:33.619Z,40.65
2023-05-22T18:22:37.010Z,40.92
2023-05-22T18:27:38.603Z,40.86
2023-05-22T18:32:40.350Z,41.12
2023-05-22T18:37:41.948Z,41.01
2023-05-22T18:42:43.431Z,40.97
2023-05-22T18:47:44.938Z,41.20
2023-05-22T18:52:46.424Z,41.00
2023-05-22T18:57:47.850Z,41.08
2023-05-22T19:02:49.324Z,41.03
2023-05-22T19:07:50.786Z,40.90
2023-05-22T19:12:52.217Z,41.03
2023-05-22T19:17:53.895Z,41.00
2023-05-22T19:22:56.247Z,40.95
2023-05-22T19:27:57.693Z,40.86
2023-05-22T19:32:59.182Z,41.05
2023-05-22T19:38:00.670Z,40.97
2023-05-22T19:43:02.144Z,40.94
2023-05-22T19:48:03.896Z,41.11
2023-05-22T19:53:05.372Z,41.17
2023-05-22T19:58:06.801Z,41.08
2023-05-22T20:03:08.326Z,41.12
2023-05-22T20:08:10.176Z,41.17
2023-05-22T20:13:11.600Z,41.30
2023-05-22T20:18:14.157Z,41.21
2023-05-22T20:23:15.575Z,41.20
2023-05-22T20:28:16.992Z,41.35
2023-05-22T20:33:19.202Z,41.35
2023-05-22T20:38:22.275Z,41.64
2023-05-22T20:43:26.027Z,41.87
2023-05-22T20:48:27.453Z,41.83
2023-05-22T20:53:28.914Z,42.11
2023-05-22T20:58:30.338Z,42.31
2023-05-22T21:03:31.859Z,42.16
2023-05-22T21:08:33.349Z,42.42
2023-05-22T21:13:34.760Z,42.79
2023-05-22T21:18:38.613Z,42.76
2023-05-22T21:23:40.038Z,43.00
2023-05-22T21:28:42.442Z,43.24
2023-05-22T21:33:44.856Z,43.26
2023-05-22T21:38:46.330Z,43.42
2023-05-22T21:43:47.796Z,43.44
2023-05-22T21:48:49.239Z,43.57
2023-05-22T21:53:50.709Z,43.53
2023-05-22T21:58:52.127Z,43.44
2023-05-22T22:03:53.747Z,43.57
2023-05-22T22:08:57.768Z,43.40
2023-05-22T22:13:59.178Z,43.05
2023-05-22T22:19:01.981Z,42.83
2023-05-22T22:24:03.857Z,42.81
2023-05-22T22:29:05.279Z,43.23
2023-05-22T22:34:06.979Z,43.41
2023-05-22T22:39:08.431Z,43.66
2023-05-22T22:44:09.856Z,43.73
2023-05-22T22:49:11.362Z,44.63
2023-05-22T22:54:15.089Z,44.46
2023-05-22T22:59:16.685Z,44.69
2023-05-22T23:04:18.183Z,45.04
2023-05-22T23:09:20.098Z,45.01
2023-05-22T23:14:21.502Z,45.03
2023-05-22T23:19:23.019Z,45.03
2023-05-22T23:24:24.507Z,45.16
2023-05-22T23:29:25.927Z,45.62
2023-05-22T23:34:27.361Z,45.49
2023-05-22T23:39:28.787Z,45.43
2023-05-22T23:44:30.654Z,45.41
2023-05-22T23:49:32.079Z,45.67
2023-05-22T23:54:33.540Z,45.47
2023-05-22T23:59:35.187Z,45.71
